Time;durP1;ratioP1;P1;durP2;ratioP2;P2;SDS_P1;SDS_P2;PMS_P1;PMS_P2;Temp;Humidity;BMP_temperature;BMP_pressure;BME280_temperature;BME280_humidity;BME280_pressure;Samples;Min_cycle;Max_cycle;Signal;HPM_P1;HPM_P2
2022/05/07 00:02:17;;;;;;;2.60;1.40;;;;;;;11.87;59.60;95107.72;5030813;28;20212;-77
2022/05/07 00:04:44;;;;;;;1.80;1.55;;;;;;;11.75;60.19;95105.66;5029304;28;20717;-73
2022/05/07 00:07:11;;;;;;;2.10;1.55;;;;;;;11.61;60.65;95101.53;5043797;28;20219;-77
2022/05/07 00:09:39;;;;;;;1.90;1.25;;;;;;;11.67;59.13;95097.50;5029794;28;20196;-73
2022/05/07 00:12:07;;;;;;;1.70;1.42;;;;;;;11.68;59.42;95097.19;5034040;28;20204;-71
2022/05/07 00:14:35;;;;;;;1.85;1.40;;;;;;;11.61;59.81;95093.38;5034530;28;20296;-77
2022/05/07 00:19:47;;;;;;;5.20;2.08;;;;;;;11.57;59.32;95092.44;5033749;28;20204;-75
2022/05/07 00:22:14;;;;;;;1.38;0.95;;;;;;;11.53;59.31;95083.34;5034473;28;20200;-75
2022/05/07 00:24:42;;;;;;;1.20;1.10;;;;;;;11.55;59.29;95100.09;5034475;28;20223;-76
2022/05/07 00:27:09;;;;;;;3.03;1.83;;;;;;;11.52;59.24;95085.25;5033661;28;20231;-73
2022/05/07 00:29:36;;;;;;;5.60;1.73;;;;;;;11.52;58.97;95089.88;5034468;28;20208;-78
2022/05/07 00:32:04;;;;;;;3.83;1.77;;;;;;;11.55;58.69;95089.25;5034043;28;20204;-78
2022/05/07 00:34:31;;;;;;;2.90;1.73;;;;;;;11.53;58.48;95088.75;5033547;28;20676;-76
2022/05/07 00:36:58;;;;;;;1.80;1.40;;;;;;;11.46;58.81;95099.31;5023810;28;20941;-75
2022/05/07 00:39:25;;;;;;;3.70;1.85;;;;;;;11.40;59.07;95091.34;5030541;28;20614;-78
2022/05/07 00:41:54;;;;;;;2.55;1.30;;;;;;;11.38;58.95;95090.84;5034354;28;20287;-74
2022/05/07 00:44:22;;;;;;;3.38;1.27;;;;;;;11.33;58.77;95099.16;5047150;28;20232;-78
2022/05/07 00:46:50;;;;;;;2.40;1.13;;;;;;;11.30;58.87;95082.72;5034187;28;20196;-75
2022/05/07 00:49:18;;;;;;;2.72;1.30;;;;;;;11.28;58.35;95082.25;5033886;28;20671;-73
2022/05/07 00:51:45;;;;;;;0.93;0.63;;;;;;;11.26;58.33;95087.19;5034430;28;20200;-77
2022/05/07 00:54:12;;;;;;;4.18;1.20;;;;;;;11.28;58.31;95084.97;5047786;28;20227;-76
2022/05/07 00:56:39;;;;;;;1.92;1.10;;;;;;;11.27;57.86;95089.59;5034057;28;20228;-75
2022/05/07 00:59:08;;;;;;;0.75;0.73;;;;;;;11.25;58.08;95086.41;5033402;28;20243;-77
2022/05/07 01:01:35;;;;;;;0.98;0.85;;;;;;;11.20;58.04;95083.88;5034122;28;20208;-75
2022/05/07 01:04:03;;;;;;;1.65;1.27;;;;;;;11.14;58.06;95074.28;5039114;28;20227;-77
2022/05/07 01:06:30;;;;;;;1.90;1.27;;;;;;;11.09;58.29;95077.16;5041485;28;20226;-78
2022/05/07 01:08:57;;;;;;;2.25;1.65;;;;;;;11.05;58.39;95087.06;5033843;28;20299;-76
2022/05/07 01:11:26;;;;;;;1.75;1.13;;;;;;;11.04;58.27;95090.88;5033618;28;20204;-77
2022/05/07 01:13:54;;;;;;;6.07;1.40;;;;;;;11.00;58.15;95079.06;5033600;28;20238;-75
2022/05/07 01:16:24;;;;;;;1.33;1.15;;;;;;;11.03;57.80;95094.72;5033858;28;20339;-77
2022/05/07 01:18:51;;;;;;;2.95;1.20;;;;;;;11.10;57.15;95089.59;5033385;28;20688;-75
2022/05/07 01:21:19;;;;;;;2.17;1.17;;;;;;;11.05;57.44;95084.34;5032865;28;20207;-76
2022/05/07 01:23:48;;;;;;;1.38;1.25;;;;;;;10.98;57.68;95081.31;5019949;28;20220;-78
2022/05/07 01:26:16;;;;;;;1.48;1.00;;;;;;;10.98;57.24;95092.13;5033241;28;20256;-73
2022/05/07 01:28:44;;;;;;;1.00;0.88;;;;;;;10.99;57.21;95088.31;5032942;28;20208;-74
2022/05/07 01:31:11;;;;;;;1.83;1.00;;;;;;;10.95;57.54;95084.63;5032981;28;20200;-76
2022/05/07 01:33:38;;;;;;;4.38;1.92;;;;;;;10.98;57.30;95089.44;5033403;28;20652;-76
2022/05/07 01:36:10;;;;;;;1.27;1.08;;;;;;;10.94;57.28;95085.75;5032946;28;20252;-76
2022/05/07 01:38:38;;;;;;;3.22;1.65;;;;;;;10.94;57.05;95099.31;5032662;28;20213;-77
2022/05/07 01:41:05;;;;;;;3.95;1.45;;;;;;;10.97;56.94;95085.13;5033132;28;20235;-75
2022/05/07 01:43:33;;;;;;;9.60;1.70;;;;;;;10.98;56.78;95094.84;5040203;28;20200;-76
2022/05/07 01:46:00;;;;;;;5.90;1.25;;;;;;;11.01;56.47;95089.59;5034635;28;20626;-74
2022/05/07 01:48:26;;;;;;;1.25;0.88;;;;;;;11.00;56.30;95087.22;5033347;28;20211;-77
2022/05/07 01:50:53;;;;;;;0.70;0.70;;;;;;;10.99;56.39;95088.31;5032986;28;20717;-73
2022/05/07 01:53:22;;;;;;;5.18;1.52;;;;;;;10.92;56.70;95071.75;5032935;28;20215;-77
2022/05/07 01:55:50;;;;;;;1.38;1.27;;;;;;;10.88;56.98;95077.00;5032902;28;20229;-74
2022/05/07 01:58:17;;;;;;;1.50;1.10;;;;;;;10.86;56.88;95067.59;5032435;28;20625;-78
2022/05/07 02:00:44;;;;;;;0.90;0.80;;;;;;;10.80;57.42;95074.25;5032194;28;20279;-77
2022/05/07 02:03:11;;;;;;;4.05;1.17;;;;;;;10.74;57.47;95068.22;5032684;28;20204;-77
2022/05/07 02:05:38;;;;;;;1.65;1.20;;;;;;;10.68;57.85;95072.97;5033052;28;20216;-78
2022/05/07 02:08:05;;;;;;;2.55;1.42;;;;;;;10.61;58.16;95075.38;5032739;28;20204;-77
2022/05/07 02:10:32;;;;;;;3.45;1.80;;;;;;;10.55;58.60;95076.63;5032029;28;20667;-78
2022/05/07 02:13:01;;;;;;;2.42;1.08;;;;;;;10.53;58.76;95081.56;5032129;28;20220;-78
2022/05/07 02:15:29;;;;;;;2.25;1.52;;;;;;;10.44;59.22;95078.03;5038022;28;20208;-77
2022/05/07 02:17:57;;;;;;;2.13;1.23;;;;;;;10.40;59.05;95092.53;5040071;28;20332;-73
2022/05/07 02:20:24;;;;;;;1.67;1.10;;;;;;;10.38;59.22;95090.16;5032429;28;20197;-75
2022/05/07 02:22:53;;;;;;;1.60;0.98;;;;;;;10.38;59.13;95083.94;5032571;28;20224;-78
2022/05/07 02:25:20;;;;;;;6.57;1.50;;;;;;;10.34;59.57;95078.34;5019018;28;20278;-77
2022/05/07 02:27:47;;;;;;;3.05;1.52;;;;;;;10.33;59.37;95079.47;5031801;28;20228;-71
2022/05/07 02:30:19;;;;;;;3.05;1.13;;;;;;;10.31;59.43;95084.38;5026349;28;20208;-77
2022/05/07 02:32:46;;;;;;;0.98;0.90;;;;;;;10.30;59.55;95085.50;5020586;28;20250;-73
2022/05/07 02:35:12;;;;;;;4.68;1.05;;;;;;;10.27;59.46;95094.25;5031755;28;20216;-74
2022/05/07 02:37:39;;;;;;;4.07;1.33;;;;;;;10.30;59.40;95088.19;5018486;28;20225;-78
2022/05/07 02:40:07;;;;;;;3.58;1.45;;;;;;;10.23;59.73;95094.09;5030974;28;20207;-77
2022/05/07 02:42:33;;;;;;;6.72;1.40;;;;;;;10.24;59.79;95098.41;5031152;28;20212;-76
2022/05/07 02:45:01;;;;;;;2.92;1.20;;;;;;;10.16;60.27;95098.31;5042276;28;20236;-76
2022/05/07 02:47:29;;;;;;;2.33;1.17;;;;;;;10.07;60.53;95095.59;5032244;28;20201;-77
2022/05/07 02:49:56;;;;;;;3.80;1.58;;;;;;;9.99;60.97;95105.25;5031966;28;20203;-75
2022/05/07 02:52:23;;;;;;;4.10;1.42;;;;;;;9.99;60.97;95105.25;5032034;28;20223;-76
2022/05/07 02:54:50;;;;;;;1.65;1.23;;;;;;;9.96;61.32;95100.47;5031940;28;20203;-74
2022/05/07 02:57:16;;;;;;;1.80;1.38;;;;;;;9.89;61.51;95094.72;5031376;28;20220;-75
2022/05/07 02:59:43;;;;;;;0.80;0.80;;;;;;;9.81;61.80;95100.88;5032111;28;20240;-77
2022/05/07 03:02:11;;;;;;;3.67;1.30;;;;;;;9.82;61.84;95109.81;5031359;28;20212;-77
2022/05/07 03:04:39;;;;;;;2.53;1.40;;;;;;;9.71;62.41;95103.03;5031752;28;20216;-77
2022/05/07 03:07:06;;;;;;;3.58;1.73;;;;;;;9.69;62.39;95106.06;5035536;28;20214;-76
2022/05/07 03:09:33;;;;;;;1.75;1.10;;;;;;;9.65;62.66;95102.38;5040830;28;20212;-76
2022/05/07 03:12:00;;;;;;;1.45;1.05;;;;;;;9.63;62.56;95096.47;5031027;28;20208;-73
2022/05/07 03:14:27;;;;;;;1.48;1.00;;;;;;;9.67;62.40;95102.88;5031232;28;20207;-77
2022/05/07 03:16:54;;;;;;;1.73;1.30;;;;;;;9.71;62.41;95103.03;5031645;28;20208;-73
2022/05/07 03:19:21;;;;;;;2.22;1.35;;;;;;;9.67;62.72;95102.88;5031239;28;20223;-77
2022/05/07 03:21:49;;;;;;;2.88;0.70;;;;;;;9.66;62.83;95095.06;5031614;28;20204;-77
2022/05/07 03:24:16;;;;;;;2.45;1.60;;;;;;;9.67;63.03;95102.88;5031470;28;20227;-74
2022/05/07 03:26:44;;;;;;;2.35;1.65;;;;;;;9.72;63.06;95105.44;5031433;28;20250;-76
2022/05/07 03:29:11;;;;;;;1.60;1.30;;;;;;;9.82;62.62;95105.19;5031345;28;20346;-78
2022/05/07 03:31:39;;;;;;;4.00;1.67;;;;;;;9.92;62.50;95094.09;5031208;28;20200;-76
2022/05/07 03:34:06;;;;;;;2.45;1.38;;;;;;;10.02;62.35;95081.38;5043340;28;20200;-77
2022/05/07 03:36:33;;;;;;;5.25;1.42;;;;;;;10.18;62.10;95096.09;5031462;28;20228;-76
2022/05/07 03:39:01;;;;;;;3.38;1.52;;;;;;;10.19;62.06;95097.72;5031363;28;20237;-77
2022/05/07 03:41:28;;;;;;;2.10;1.30;;;;;;;10.06;62.51;95093.19;5030764;28;20238;-74
2022/05/07 03:43:55;;;;;;;2.72;1.60;;;;;;;9.92;62.72;95094.09;5040418;28;20231;-79
2022/05/07 03:46:24;;;;;;;4.57;2.10;;;;;;;9.83;63.50;95098.66;5031011;28;20201;-77
2022/05/07 03:48:51;;;;;;;5.82;1.65;;;;;;;9.83;63.70;95095.97;5030971;28;20666;-77
2022/05/07 03:51:18;;;;;;;0.90;0.70;;;;;;;9.82;63.62;95093.56;5031344;28;20200;-78
2022/05/07 03:53:45;;;;;;;2.70;1.67;;;;;;;9.83;63.89;95111.41;5030952;28;20196;-78
2022/05/07 03:56:15;;;;;;;3.03;1.60;;;;;;;9.84;63.89;95108.34;5030670;28;20239;-78
2022/05/07 03:58:42;;;;;;;1.65;1.40;;;;;;;10.27;62.80;95107.78;5030788;28;20264;-78
2022/05/07 04:01:09;;;;;;;2.15;1.63;;;;;;;10.44;62.33;95105.13;5030910;28;20211;-78
2022/05/07 04:03:36;;;;;;;4.88;1.58;;;;;;;10.36;62.52;95108.63;5030488;28;20715;-77
2022/05/07 04:06:03;;;;;;;1.25;0.90;;;;;;;10.28;62.74;95107.47;5030847;28;20250;-78
2022/05/07 04:08:30;;;;;;;2.95;0.98;;;;;;;10.40;62.53;95125.03;5030700;28;20639;-76
2022/05/07 04:10:57;;;;;;;3.33;1.90;;;;;;;10.53;62.26;95124.91;5031122;28;20215;-78
2022/05/07 04:13:25;;;;;;;3.15;1.92;;;;;;;10.84;61.62;95118.59;5030493;28;20712;-78
2022/05/07 04:15:52;;;;;;;2.58;1.15;;;;;;;11.39;59.70;95122.28;5030594;28;20200;-78
2022/05/07 04:18:19;;;;;;;5.25;1.92;;;;;;;12.34;57.62;95122.09;5031041;28;20236;-77
2022/05/07 04:20:46;;;;;;;5.43;2.00;;;;;;;13.47;54.16;95109.38;5031086;28;20200;-76
2022/05/07 04:23:13;;;;;;;5.88;2.13;;;;;;;14.55;51.45;95103.75;5030795;28;20224;-78
2022/05/07 04:25:41;;;;;;;3.45;1.70;;;;;;;15.43;48.72;95093.94;5031126;28;20220;-78
2022/05/07 04:28:08;;;;;;;3.58;2.05;;;;;;;15.86;48.04;95091.25;5030368;28;20228;-78
2022/05/07 04:30:37;;;;;;;3.85;1.90;;;;;;;16.04;47.20;95091.75;5030393;28;20205;-78
2022/05/07 04:33:04;;;;;;;5.28;2.05;;;;;;;16.15;46.92;95092.81;5034535;28;20680;-78
2022/05/07 04:35:31;;;;;;;4.00;1.88;;;;;;;16.51;46.13;95089.03;5039180;28;20220;-76
2022/05/07 04:37:58;;;;;;;5.10;2.90;;;;;;;17.02;45.10;95092.63;5030426;28;20201;-76
2022/05/07 04:40:25;;;;;;;2.33;1.73;;;;;;;16.47;45.59;95088.16;5030943;28;20204;-77
2022/05/07 04:42:52;;;;;;;5.28;1.90;;;;;;;16.10;46.99;95090.34;5031988;28;20196;-77
2022/05/07 04:45:19;;;;;;;4.63;2.05;;;;;;;16.38;46.47;95094.97;5036697;28;20576;-79
2022/05/07 04:47:48;;;;;;;4.90;2.17;;;;;;;16.11;47.05;95097.41;5029927;28;20200;-78
2022/05/07 04:50:16;;;;;;;4.95;1.98;;;;;;;15.63;48.15;95099.22;5030144;28;20204;-76
2022/05/07 04:52:43;;;;;;;4.10;2.67;;;;;;;15.53;48.26;95099.69;5030818;28;20705;-79
2022/05/07 04:55:10;;;;;;;4.03;2.20;;;;;;;15.94;47.78;95103.19;5030663;28;20229;-74
2022/05/07 04:57:37;;;;;;;4.97;2.67;;;;;;;16.07;47.27;95096.50;5032415;28;20200;-75
2022/05/07 05:00:06;;;;;;;5.82;2.78;;;;;;;15.92;47.77;95100.00;5033664;28;20343;-77
2022/05/07 05:02:33;;;;;;;4.90;2.70;;;;;;;16.47;46.80;95099.09;5020498;28;20200;-77
2022/05/07 05:05:02;;;;;;;3.88;2.35;;;;;;;17.03;45.65;95096.94;5033880;28;20208;-78
2022/05/07 05:07:28;;;;;;;4.80;2.78;;;;;;;17.56;44.55;95091.00;5033916;28;20208;-78
2022/05/07 05:09:55;;;;;;;3.95;2.67;;;;;;;17.20;44.99;95095.75;5033950;28;20682;-77
2022/05/07 05:12:23;;;;;;;4.72;2.67;;;;;;;16.44;46.38;95096.25;5033548;28;20273;-78
2022/05/07 05:15:06;;;;;;;4.10;2.70;;;;;;;16.15;47.04;95087.34;5033247;28;20204;-78
2022/05/07 05:17:34;;;;;;;5.80;3.00;;;;;;;17.51;44.70;95092.09;5033734;28;20192;-78
2022/05/07 05:20:04;;;;;;;3.58;2.33;;;;;;;18.12;43.38;95096.84;5033651;28;20235;-76
2022/05/07 05:22:32;;;;;;;4.65;2.92;;;;;;;17.66;43.97;95093.19;5033992;28;20220;-77
2022/05/07 05:24:59;;;;;;;8.05;3.03;;;;;;;18.38;43.07;95085.16;5033769;28;20204;-76
2022/05/07 05:27:26;;;;;;;5.35;3.17;;;;;;;17.48;44.26;95100.25;5033832;28;20211;-77
2022/05/07 05:29:53;;;;;;;5.80;2.72;;;;;;;18.81;42.29;95094.91;5033867;28;20208;-79
2022/05/07 05:32:20;;;;;;;6.28;3.25;;;;;;;18.60;42.03;95100.03;5033360;28;20204;-78
2022/05/07 05:34:48;;;;;;;4.43;3.08;;;;;;;18.15;42.93;95089.84;5033303;28;20215;-78
2022/05/07 05:37:17;;;;;;;4.20;2.75;;;;;;;18.33;42.96;95094.47;5032757;28;20544;-78
2022/05/07 05:39:45;;;;;;;4.72;3.00;;;;;;;18.28;42.86;95092.03;5033638;28;20593;-77
2022/05/07 05:42:12;;;;;;;6.43;3.50;;;;;;;17.34;44.42;95111.69;5032908;28;20548;-78
2022/05/07 05:44:39;;;;;;;6.32;3.30;;;;;;;16.72;45.44;95110.66;5042055;28;20290;-78
2022/05/07 05:47:07;;;;;;;5.38;3.67;;;;;;;16.50;46.77;95103.06;5032655;28;20204;-75
2022/05/07 05:49:34;;;;;;;7.38;3.35;;;;;;;17.99;44.63;95089.94;5019813;28;20205;-78
2022/05/07 05:52:02;;;;;;;5.25;3.33;;;;;;;18.98;42.94;95091.66;5032935;28;20296;-78
2022/05/07 05:54:30;;;;;;;5.18;3.10;;;;;;;19.11;42.27;95090.28;5032151;28;20361;-80
2022/05/07 05:56:57;;;;;;;6.03;2.67;;;;;;;20.69;39.03;95088.19;5032825;28;20207;-78
2022/05/07 05:59:25;;;;;;;6.47;3.53;;;;;;;20.99;37.80;95090.78;5033168;28;20224;-77
2022/05/07 06:01:52;;;;;;;6.28;3.50;;;;;;;20.24;38.95;95092.84;5032404;28;20231;-78
2022/05/07 06:04:19;;;;;;;5.18;2.80;;;;;;;20.50;38.43;95089.97;5032850;28;20204;-77
2022/05/07 06:06:45;;;;;;;5.53;3.50;;;;;;;20.50;37.61;95103.75;5032934;28;20605;-78
2022/05/07 06:09:12;;;;;;;5.82;3.15;;;;;;;20.54;38.79;95088.06;5032151;28;20216;-77
2022/05/07 06:11:40;;;;;;;5.30;3.35;;;;;;;21.05;37.63;95094.75;5032366;28;20201;-80
2022/05/07 06:14:07;;;;;;;4.53;3.20;;;;;;;20.76;38.78;95097.31;5031318;28;20206;-77
2022/05/07 06:16:34;;;;;;;5.20;3.60;;;;;;;20.38;38.75;95100.47;5032179;28;20216;-75
2022/05/07 06:19:01;;;;;;;6.35;3.40;;;;;;;19.64;40.07;95106.72;5031904;28;20637;-74
2022/05/07 06:21:29;;;;;;;8.27;3.35;;;;;;;20.00;40.46;95096.13;5031984;28;20238;-78
2022/05/07 06:23:55;;;;;;;5.07;3.15;;;;;;;21.24;38.57;95092.56;5031655;28;20578;-77
2022/05/07 06:29:08;;;;;;;4.47;3.00;;;;;;;21.56;36.67;95095.50;5030660;28;20426;-76
2022/05/07 06:31:35;;;;;;;7.60;3.17;;;;;;;23.25;35.24;95082.41;5031447;28;20208;-73
2022/05/07 06:34:01;;;;;;;8.27;3.20;;;;;;;22.86;35.29;95084.41;5032109;28;20224;-74
2022/05/07 06:36:28;;;;;;;5.00;2.83;;;;;;;21.33;37.35;95099.66;5029880;28;20227;-77
2022/05/07 06:38:55;;;;;;;4.85;2.92;;;;;;;21.18;38.03;95096.78;5031521;28;20300;-77
2022/05/07 06:41:22;;;;;;;6.20;3.03;;;;;;;21.77;37.85;95094.00;5030131;28;20634;-75
2022/05/07 06:43:49;;;;;;;6.35;3.80;;;;;;;22.01;37.02;95100.81;5040956;28;20239;-75
2022/05/07 06:46:17;;;;;;;6.55;3.42;;;;;;;22.03;37.29;95088.22;5032514;28;20197;-78
2022/05/07 06:48:44;;;;;;;5.20;3.50;;;;;;;22.36;36.33;95084.34;5030467;28;20434;-70
2022/05/07 06:51:10;;;;;;;7.68;3.30;;;;;;;21.09;37.36;95090.84;5031686;28;20694;-77
2022/05/07 06:53:37;;;;;;;4.63;2.88;;;;;;;20.82;38.43;95098.50;5031421;28;20638;-80
2022/05/07 06:56:04;;;;;;;5.95;3.25;;;;;;;20.25;39.64;95108.19;5031977;28;20215;-79
2022/05/07 06:58:35;;;;;;;5.40;3.08;;;;;;;20.91;39.26;95087.16;5031197;28;20663;-81
2022/05/07 07:01:02;;;;;;;6.22;3.00;;;;;;;20.96;38.87;95086.03;5030294;28;20663;-78
2022/05/07 07:03:31;;;;;;;4.47;3.00;;;;;;;19.96;40.07;95089.78;5030901;28;20235;-74
2022/05/07 07:05:59;;;;;;;4.95;3.35;;;;;;;19.27;41.28;95094.81;5030193;28;20220;-79
2022/05/07 07:08:28;;;;;;;4.93;3.17;;;;;;;19.07;42.42;95094.91;5027625;28;20227;-77
2022/05/07 07:10:58;;;;;;;4.30;3.20;;;;;;;18.43;43.81;95088.38;5027783;28;20327;-76
2022/05/07 07:13:26;;;;;;;4.32;3.50;;;;;;;17.95;44.74;95094.53;5030896;28;20207;-86
2022/05/07 07:15:52;;;;;;;6.43;3.50;;;;;;;18.99;43.26;95079.50;5030607;28;20200;-77
2022/05/07 07:18:19;;;;;;;6.65;3.33;;;;;;;18.09;44.02;95092.06;5030357;28;20192;-81
2022/05/07 07:20:49;;;;;;;5.22;3.03;;;;;;;17.83;45.15;95083.75;5029431;28;20236;-77
2022/05/07 07:23:16;;;;;;;4.65;3.50;;;;;;;17.68;45.49;95075.25;5028041;28;20219;-75
2022/05/07 07:25:44;;;;;;;6.22;3.17;;;;;;;18.59;43.59;95079.25;5030192;28;20254;-77
2022/05/07 07:28:12;;;;;;;4.47;2.78;;;;;;;18.98;42.90;95083.41;5031678;28;20651;-90
2022/05/07 07:30:39;;;;;;;5.00;2.80;;;;;;;19.26;41.87;95063.78;5031509;28;20663;-77
2022/05/07 07:33:07;;;;;;;5.30;3.13;;;;;;;18.58;42.72;95073.00;5031607;28;20575;-77
2022/05/07 07:35:34;;;;;;;6.07;3.22;;;;;;;19.53;42.33;95064.56;5031154;28;20201;-77
2022/05/07 07:38:02;;;;;;;5.55;3.38;;;;;;;19.13;42.22;95071.44;5031568;28;20208;-80
2022/05/07 07:40:31;;;;;;;5.18;3.50;;;;;;;19.01;42.85;95068.91;5031013;28;20244;-75
2022/05/07 07:42:58;;;;;;;9.45;3.97;;;;;;;19.90;41.22;95069.31;5030700;28;20205;-74
2022/05/07 07:48:20;;;;;;;5.90;3.22;;;;;;;19.21;42.83;95063.31;4968586;28;20328;-75
2022/05/07 07:50:50;;;;;;;7.47;3.17;;;;;;;18.91;42.85;95060.53;5013025;28;20559;-74
2022/05/07 07:53:22;;;;;;;8.35;3.45;;;;;;;19.10;43.62;95060.44;5030026;28;20208;-73
2022/05/07 07:55:49;;;;;;;7.20;3.10;;;;;;;19.04;42.85;95062.69;5029786;28;20263;-73
2022/05/07 07:58:16;;;;;;;5.00;3.15;;;;;;;19.65;41.58;95053.31;5028133;28;20208;-75
2022/05/07 08:00:44;;;;;;;4.68;3.10;;;;;;;19.45;42.62;95049.91;5030131;28;20679;-75
2022/05/07 08:03:17;;;;;;;4.80;3.20;;;;;;;19.23;43.05;95064.53;5030496;28;20223;-75
2022/05/07 08:05:46;;;;;;;3.33;2.65;;;;;;;19.77;41.45;95053.06;5018730;28;20184;-71
2022/05/07 08:13:46;;;;;;;4.68;3.25;;;;;;;18.82;43.56;95060.81;5029775;28;20281;-75
2022/05/07 08:16:14;;;;;;;5.40;2.78;;;;;;;19.48;41.94;95053.84;5029346;28;20200;-72
2022/05/07 08:18:42;;;;;;;5.95;3.13;;;;;;;18.73;43.02;95057.50;5029316;28;20203;-75
2022/05/07 08:21:10;;;;;;;5.15;3.03;;;;;;;19.10;42.63;95055.72;5029373;28;20327;-73
2022/05/07 08:23:37;;;;;;;6.00;3.22;;;;;;;18.39;43.61;95060.09;5036033;28;20212;-75
2022/05/07 08:26:07;;;;;;;5.47;2.75;;;;;;;18.23;43.91;95062.16;5028507;28;20189;-78
2022/05/07 08:28:34;;;;;;;3.70;2.92;;;;;;;18.06;44.02;95057.16;5028201;28;20563;-72
2022/05/07 08:31:03;;;;;;;4.00;3.00;;;;;;;17.77;44.72;95071.50;5029130;28;20668;-73
2022/05/07 08:33:31;;;;;;;4.95;3.00;;;;;;;18.08;43.77;95074.03;5032618;28;20220;-78
2022/05/07 08:35:58;;;;;;;5.15;2.70;;;;;;;17.82;43.92;95062.97;5031084;28;20255;-80
2022/05/07 08:38:25;;;;;;;5.28;3.13;;;;;;;17.75;45.10;95064.44;5034328;28;20200;-74
2022/05/07 08:40:52;;;;;;;3.42;2.70;;;;;;;17.53;44.51;95078.03;5034389;28;20328;-72
2022/05/07 08:43:20;;;;;;;4.68;3.00;;;;;;;17.63;44.31;95078.28;5036478;28;20633;-85
2022/05/07 08:45:47;;;;;;;5.22;2.55;;;;;;;17.74;44.66;95060.09;5033679;28;20201;-77
2022/05/07 08:48:14;;;;;;;5.47;3.05;;;;;;;17.86;44.11;95066.59;5032080;28;20291;-79
2022/05/07 08:50:41;;;;;;;3.65;2.47;;;;;;;17.81;45.00;95073.16;5028519;28;20201;-75
2022/05/07 08:53:09;;;;;;;2.90;2.22;;;;;;;17.70;43.92;95061.97;5031684;28;20699;-72
2022/05/07 08:55:36;;;;;;;9.27;2.97;;;;;;;17.66;44.63;95065.81;5026902;28;20563;-76
2022/05/07 08:58:03;;;;;;;6.22;2.83;;;;;;;17.74;44.93;95060.09;5033780;28;20207;-72
2022/05/07 09:00:33;;;;;;;3.20;2.40;;;;;;;18.09;43.83;95062.72;5037165;28;20243;-74
2022/05/07 09:03:03;;;;;;;4.82;2.42;;;;;;;17.93;44.41;95063.97;5043268;28;20231;-73
2022/05/07 09:05:34;;;;;;;3.42;2.45;;;;;;;17.84;44.02;95055.97;5046798;28;20205;-76
2022/05/07 09:08:01;;;;;;;5.45;2.97;;;;;;;18.28;43.69;95059.13;5034349;28;20219;-79
2022/05/07 09:10:30;;;;;;;2.78;2.05;;;;;;;18.36;42.88;95055.34;5032597;28;20212;-80
2022/05/07 09:13:01;;;;;;;3.97;2.28;;;;;;;18.16;41.35;95056.56;5034007;28;20235;-85
2022/05/07 09:15:28;;;;;;;4.43;2.30;;;;;;;18.46;40.97;95048.44;5033014;28;20189;-83
2022/05/07 09:17:56;;;;;;;2.83;2.50;;;;;;;18.39;40.87;95049.13;5033516;28;20205;-77
2022/05/07 09:20:23;;;;;;;3.35;2.13;;;;;;;18.78;41.13;95038.00;5033445;28;20892;-74
2022/05/07 09:22:53;;;;;;;3.72;2.30;;;;;;;19.07;39.21;95030.94;5034545;28;20224;-75
2022/05/07 09:25:21;;;;;;;3.28;2.45;;;;;;;18.96;39.35;95032.78;5030339;28;20255;-77
2022/05/07 09:27:48;;;;;;;3.67;2.40;;;;;;;19.17;41.06;95039.34;5032090;28;20641;-76
2022/05/07 09:30:22;;;;;;;5.47;2.70;;;;;;;19.84;39.68;95022.88;5033416;28;20200;-83
2022/05/07 09:32:50;;;;;;;4.93;2.47;;;;;;;19.76;38.64;95032.22;5033344;28;20228;-70
2022/05/07 09:38:10;;;;;;;3.92;2.70;;;;;;;19.63;38.93;95027.38;5033159;28;20203;-76
2022/05/07 09:40:39;;;;;;;3.03;2.22;;;;;;;19.40;39.38;95022.78;5032736;28;20236;-70
2022/05/07 09:43:07;;;;;;;5.05;2.60;;;;;;;19.23;40.00;95019.78;5022985;28;20708;-77
2022/05/07 09:45:34;;;;;;;5.18;2.50;;;;;;;19.58;40.41;95001.00;5038560;28;20235;-75
2022/05/07 09:48:01;;;;;;;4.72;2.47;;;;;;;19.52;39.68;95005.28;5033153;28;20262;-76
2022/05/07 09:50:44;;;;;;;4.65;2.70;;;;;;;19.22;40.18;95004.47;5033209;28;20698;-74
2022/05/07 09:58:42;;;;;;;10.63;2.30;;;;;;;20.16;38.17;95000.41;5032668;28;20203;-78
2022/05/07 10:01:24;;;;;;;3.60;2.40;;;;;;;19.69;37.77;94996.41;5033019;28;20244;-78
2022/05/07 10:04:06;;;;;;;4.60;2.42;;;;;;;19.54;37.01;94997.44;5036158;28;20599;-79
2022/05/07 10:06:46;;;;;;;7.63;2.25;;;;;;;19.46;36.74;94992.97;5029576;28;20200;-79
2022/05/07 10:09:26;;;;;;;4.50;2.20;;;;;;;19.76;36.72;94987.47;5031619;28;20189;-76
2022/05/07 10:11:55;;;;;;;4.68;2.35;;;;;;;20.74;36.47;94981.22;5027319;28;20271;-79
2022/05/07 10:14:27;;;;;;;4.63;1.95;;;;;;;20.66;34.67;94989.81;5032319;28;20207;-76
2022/05/07 10:17:13;;;;;;;4.13;2.30;;;;;;;19.81;35.70;94996.16;5032184;28;20204;-74
2022/05/07 10:19:43;;;;;;;3.95;2.10;;;;;;;20.33;35.50;94977.78;5032188;28;20228;-75
2022/05/07 10:22:21;;;;;;;3.78;2.28;;;;;;;20.57;35.43;94982.69;5031967;28;20220;-75
2022/05/07 10:24:49;;;;;;;3.25;2.05;;;;;;;20.65;35.03;94988.22;5031513;28;20242;-75
2022/05/07 10:27:22;;;;;;;3.15;1.95;;;;;;;20.61;36.21;94976.44;5031218;28;20223;-75
2022/05/07 10:29:50;;;;;;;3.67;1.98;;;;;;;20.54;34.69;94991.72;5032036;28;20235;-75
2022/05/07 10:32:18;;;;;;;4.13;2.45;;;;;;;20.58;33.48;94977.97;5032107;28;20220;-75
2022/05/07 10:34:53;;;;;;;3.25;2.30;;;;;;;20.77;34.65;94974.19;5032172;28;20200;-73
2022/05/07 10:37:21;;;;;;;5.65;2.15;;;;;;;21.11;35.16;94961.75;5030796;28;20199;-76
2022/05/07 10:39:52;;;;;;;3.88;2.00;;;;;;;21.30;33.33;94957.94;5030313;28;20200;-74
2022/05/07 10:42:21;;;;;;;3.83;3.05;;;;;;;21.76;33.62;94952.53;5031002;28;20196;-74
2022/05/07 10:44:50;;;;;;;3.28;1.90;;;;;;;21.00;32.95;94966.44;5032604;28;20690;-75
2022/05/07 10:47:23;;;;;;;3.83;2.30;;;;;;;20.68;33.75;94970.94;5031703;28;20343;-76
2022/05/07 10:49:52;;;;;;;2.65;1.83;;;;;;;20.80;34.02;94954.09;5029035;28;20648;-76
2022/05/07 10:52:32;;;;;;;2.60;2.13;;;;;;;20.90;32.63;94956.94;5027218;28;20216;-76
2022/05/07 10:55:11;;;;;;;1.95;1.75;;;;;;;20.94;33.15;94962.44;5030294;28;20695;-75
2022/05/07 10:57:39;;;;;;;3.15;2.13;;;;;;;20.77;33.99;94952.16;5031073;28;20201;-76
2022/05/07 11:00:11;;;;;;;3.08;2.08;;;;;;;20.53;33.57;94954.34;5032033;28;20243;-72
2022/05/07 11:02:38;;;;;;;3.33;2.30;;;;;;;20.64;34.12;94950.88;5019324;28;20296;-77
2022/05/07 11:05:06;;;;;;;3.05;2.30;;;;;;;20.41;33.49;94946.41;5031837;28;20219;-77
2022/05/07 11:07:35;;;;;;;3.30;2.17;;;;;;;19.80;33.56;94950.59;5031599;28;20200;-77
2022/05/07 11:10:03;;;;;;;2.45;1.63;;;;;;;19.96;32.22;94957.78;5031720;28;20270;-74
2022/05/07 11:12:30;;;;;;;3.53;1.83;;;;;;;20.29;31.11;94941.16;5031680;28;20521;-74
2022/05/07 11:14:57;;;;;;;2.88;1.60;;;;;;;20.28;27.92;94945.09;5032021;28;20212;-74
2022/05/07 11:17:32;;;;;;;2.75;1.70;;;;;;;20.35;28.56;94927.84;5031500;28;20319;-75
2022/05/07 11:19:59;;;;;;;3.58;2.03;;;;;;;20.81;29.76;94931.69;5030916;28;20207;-73
2022/05/07 11:22:29;;;;;;;2.50;1.65;;;;;;;20.29;28.95;94932.91;5031277;28;20243;-75
2022/05/07 11:24:58;;;;;;;4.85;1.60;;;;;;;20.68;26.98;94937.91;5030782;28;20248;-73
2022/05/07 11:27:30;;;;;;;3.00;1.58;;;;;;;20.28;24.89;94925.81;5031052;28;20211;-73
2022/05/07 11:29:58;;;;;;;2.63;1.67;;;;;;;20.63;25.39;94930.81;5031033;28;20192;-74
2022/05/07 11:32:24;;;;;;;4.70;1.70;;;;;;;20.91;25.20;94919.16;5031788;28;20285;-73
2022/05/07 11:34:57;;;;;;;3.97;1.75;;;;;;;21.06;24.70;94914.50;5030764;28;20548;-73
2022/05/07 11:37:24;;;;;;;1.98;1.58;;;;;;;20.50;25.66;94922.06;5030728;28;20635;-74
2022/05/07 11:39:53;;;;;;;3.92;2.20;;;;;;;20.80;26.75;94919.09;5018406;28;20307;-75
2022/05/07 11:42:29;;;;;;;3.58;1.58;;;;;;;20.37;28.35;94923.56;5030810;28;20228;-71
2022/05/07 11:47:51;;;;;;;2.95;1.90;;;;;;;21.04;27.89;94906.63;5030819;28;20279;-75
2022/05/07 11:50:21;;;;;;;3.80;1.98;;;;;;;20.91;27.70;94905.38;5030609;28;20342;-72
2022/05/07 11:52:48;;;;;;;3.55;1.55;;;;;;;20.59;28.20;94919.00;5018196;28;20287;-75
2022/05/07 11:55:16;;;;;;;3.05;1.90;;;;;;;20.22;28.23;94894.34;5031045;28;20204;-76
2022/05/07 11:57:46;;;;;;;3.20;1.85;;;;;;;21.05;28.81;94896.38;5030237;28;20302;-75
2022/05/07 12:00:15;;;;;;;1.70;1.60;;;;;;;21.26;26.78;94891.78;5030940;28;20204;-74
2022/05/07 12:02:49;;;;;;;3.45;1.67;;;;;;;21.62;25.00;94886.34;5030871;28;20524;-75
2022/05/07 12:05:17;;;;;;;2.90;1.70;;;;;;;21.35;27.39;94888.66;5031000;28;20757;-75